createdAt,value
2024-01-24T00:01:36.560Z,3.40
2024-01-24T00:04:03.354Z,3.15
2024-01-24T00:06:29.988Z,3.45
2024-01-24T00:08:56.530Z,3.67
2024-01-24T00:11:23.079Z,4.47
2024-01-24T00:13:50.817Z,3.20
2024-01-24T00:16:17.426Z,4.43
2024-01-24T00:18:43.964Z,3.85
2024-01-24T00:21:10.486Z,3.92
2024-01-24T00:23:36.989Z,4.25
2024-01-24T00:26:03.500Z,4.28
2024-01-24T00:28:30.892Z,4.85
2024-01-24T00:30:57.738Z,3.88
2024-01-24T00:33:27.008Z,3.75
2024-01-24T00:35:53.514Z,3.60
2024-01-24T00:38:20.165Z,3.30
2024-01-24T00:40:46.689Z,3.50
2024-01-24T00:43:13.264Z,4.75
2024-01-24T00:45:39.838Z,4.95
2024-01-24T00:48:07.789Z,5.25
2024-01-24T00:50:35.822Z,4.93
2024-01-24T00:53:05.746Z,3.97
2024-01-24T00:55:32.238Z,3.60
2024-01-24T00:57:59.543Z,3.58
2024-01-24T01:00:26.229Z,3.78
2024-01-24T01:02:52.878Z,4.40
2024-01-24T01:05:19.710Z,3.50
2024-01-24T01:07:46.755Z,4.22
2024-01-24T01:10:13.291Z,3.40
2024-01-24T01:12:39.866Z,3.55
2024-01-24T01:15:06.955Z,3.33
2024-01-24T01:17:33.469Z,3.40
2024-01-24T01:19:59.971Z,3.53
2024-01-24T01:22:26.641Z,2.70
2024-01-24T01:24:53.304Z,3.95
2024-01-24T01:27:19.847Z,3.33
2024-01-24T01:29:46.400Z,3.03
2024-01-24T01:32:12.986Z,2.80
2024-01-24T01:34:39.501Z,3.38
2024-01-24T01:37:06.209Z,3.35
2024-01-24T01:39:32.783Z,3.25
2024-01-24T01:41:59.277Z,3.72
2024-01-24T01:44:25.869Z,3.13
2024-01-24T01:46:52.626Z,3.28
2024-01-24T01:49:19.982Z,4.00
2024-01-24T01:51:46.931Z,3.33
2024-01-24T01:54:16.011Z,3.65
2024-01-24T01:56:42.951Z,3.90
2024-01-24T01:59:10.258Z,3.80
2024-01-24T02:01:37.151Z,4.10
2024-01-24T02:04:04.289Z,4.13
2024-01-24T02:06:31.010Z,3.80
2024-01-24T02:08:57.813Z,4.25
2024-01-24T02:11:24.763Z,4.38
2024-01-24T02:13:58.320Z,3.95
2024-01-24T02:16:24.822Z,5.90
2024-01-24T02:18:51.555Z,3.47
2024-01-24T02:21:18.182Z,5.68
2024-01-24T02:23:46.260Z,4.55
2024-01-24T02:26:12.838Z,4.35
2024-01-24T02:28:39.438Z,5.75
2024-01-24T02:31:05.892Z,3.90
2024-01-24T02:33:32.523Z,5.78
2024-01-24T02:35:59.068Z,5.38
2024-01-24T02:38:25.680Z,7.15
2024-01-24T02:40:52.269Z,5.65
2024-01-24T02:43:18.878Z,5.47
2024-01-24T02:45:45.443Z,6.38
2024-01-24T02:48:12.106Z,4.80
2024-01-24T02:50:38.667Z,7.03
2024-01-24T02:53:05.182Z,6.55
2024-01-24T02:55:31.665Z,5.13
2024-01-24T02:57:58.271Z,5.40
2024-01-24T03:00:24.852Z,9.02
2024-01-24T03:02:51.309Z,6.97
2024-01-24T03:05:17.934Z,8.48
2024-01-24T03:07:44.460Z,6.32
2024-01-24T03:10:11.054Z,8.50
2024-01-24T03:12:38.782Z,8.05
2024-01-24T03:15:06.685Z,4.97
2024-01-24T03:17:33.620Z,5.43
2024-01-24T03:20:00.313Z,4.53
2024-01-24T03:22:26.952Z,8.18
2024-01-24T03:24:53.870Z,6.18
2024-01-24T03:27:20.614Z,7.15
2024-01-24T03:29:47.180Z,8.07
2024-01-24T03:32:13.651Z,8.25
2024-01-24T03:34:40.110Z,6.90
2024-01-24T03:37:06.775Z,8.68
2024-01-24T03:39:33.390Z,7.03
2024-01-24T03:41:59.876Z,5.80
2024-01-24T03:44:26.462Z,9.43
2024-01-24T03:46:53.713Z,6.10
2024-01-24T03:49:22.891Z,7.57
2024-01-24T03:51:49.595Z,9.43
2024-01-24T03:54:16.518Z,10.43
2024-01-24T03:56:43.131Z,10.52
2024-01-24T03:59:09.719Z,8.55
2024-01-24T04:01:36.397Z,10.77
2024-01-24T04:04:03.081Z,13.20
2024-01-24T04:06:29.766Z,11.93
2024-01-24T04:08:56.332Z,11.10
2024-01-24T04:11:22.852Z,15.32
2024-01-24T04:13:54.491Z,11.05
2024-01-24T04:16:21.158Z,13.57
2024-01-24T04:18:47.950Z,16.55
2024-01-24T04:21:14.504Z,13.45
2024-01-24T04:23:40.953Z,14.95
2024-01-24T04:26:08.220Z,19.88
2024-01-24T04:28:34.757Z,15.73
2024-01-24T04:31:01.365Z,14.00
2024-01-24T04:33:29.024Z,12.65
2024-01-24T04:35:58.273Z,20.92
2024-01-24T04:38:25.428Z,18.83
2024-01-24T04:40:52.662Z,17.48
2024-01-24T04:43:20.970Z,15.85
2024-01-24T04:45:47.584Z,18.80
2024-01-24T04:48:14.229Z,17.58
2024-01-24T04:50:40.949Z,15.43
2024-01-24T04:53:07.486Z,20.40
2024-01-24T04:55:34.064Z,21.30
2024-01-24T04:58:00.779Z,18.83
2024-01-24T05:00:27.517Z,18.88
2024-01-24T05:02:54.150Z,13.88
2024-01-24T05:05:20.680Z,16.38
2024-01-24T05:07:47.236Z,21.95
2024-01-24T05:10:13.797Z,20.75
2024-01-24T05:12:40.390Z,18.67
2024-01-24T05:15:09.512Z,20.67
2024-01-24T05:17:38.733Z,19.95
2024-01-24T05:20:07.397Z,21.05
2024-01-24T05:22:33.999Z,21.52
2024-01-24T05:25:00.619Z,19.98
2024-01-24T05:27:27.166Z,18.75
2024-01-24T05:29:53.736Z,19.48
2024-01-24T05:32:20.299Z,21.25
2024-01-24T05:34:47.101Z,23.40
2024-01-24T05:37:13.943Z,22.70
2024-01-24T05:39:43.018Z,18.95
2024-01-24T05:42:09.919Z,26.88
2024-01-24T05:44:36.421Z,20.08
2024-01-24T05:47:02.916Z,25.40
2024-01-24T05:49:29.485Z,22.42
2024-01-24T05:51:56.355Z,23.65
2024-01-24T05:54:23.057Z,25.63
2024-01-24T05:56:50.623Z,22.58
2024-01-24T05:59:17.134Z,23.17
2024-01-24T06:01:44.622Z,22.63
2024-01-24T06:04:11.566Z,25.67
2024-01-24T06:06:38.303Z,21.83
2024-01-24T06:09:05.028Z,26.00
2024-01-24T06:11:31.590Z,24.77
2024-01-24T06:13:58.145Z,21.50
2024-01-24T06:16:24.754Z,25.83
2024-01-24T06:18:51.347Z,25.33
2024-01-24T06:21:17.935Z,26.35
2024-01-24T06:23:44.494Z,30.40
2024-01-24T06:26:10.979Z,24.45
2024-01-24T06:28:38.148Z,22.83
2024-01-24T06:31:04.853Z,24.63
2024-01-24T06:33:31.554Z,20.73
2024-01-24T06:35:59.027Z,26.92
2024-01-24T06:38:25.612Z,29.23
2024-01-24T06:40:52.183Z,26.50
2024-01-24T06:43:19.967Z,23.30
2024-01-24T06:45:46.633Z,30.48
2024-01-24T06:48:13.277Z,27.20
2024-01-24T06:50:40.061Z,24.05
2024-01-24T06:53:11.016Z,25.05
2024-01-24T06:55:38.137Z,30.67
2024-01-24T06:58:07.112Z,26.90
2024-01-24T07:00:34.802Z,21.73
2024-01-24T07:03:01.771Z,27.00
2024-01-24T07:05:28.618Z,21.95
2024-01-24T07:07:55.112Z,27.50
2024-01-24T07:10:23.115Z,26.70
2024-01-24T07:12:49.769Z,27.70
2024-01-24T07:15:20.156Z,30.88
2024-01-24T07:17:47.460Z,26.52
2024-01-24T07:20:14.729Z,24.60
2024-01-24T07:22:41.234Z,23.33
2024-01-24T07:25:08.630Z,25.08
2024-01-24T07:27:36.725Z,28.58
2024-01-24T07:30:06.991Z,28.98
2024-01-24T07:32:33.667Z,26.85
2024-01-24T07:35:00.762Z,19.88
2024-01-24T07:37:27.498Z,31.70
2024-01-24T07:39:55.911Z,30.88
2024-01-24T07:42:22.467Z,29.77
2024-01-24T07:44:49.168Z,27.17
2024-01-24T07:47:16.515Z,32.00
2024-01-24T07:49:43.200Z,23.63
2024-01-24T07:52:09.893Z,22.40
2024-01-24T07:54:36.600Z,22.27
2024-01-24T07:57:04.854Z,25.23
2024-01-24T07:59:32.143Z,29.35
2024-01-24T08:04:25.997Z,24.70
2024-01-24T08:06:52.688Z,27.73
2024-01-24T08:09:19.576Z,21.20
2024-01-24T08:11:46.311Z,25.42
2024-01-24T08:14:13.679Z,27.65
2024-01-24T08:16:40.285Z,25.85
2024-01-24T08:19:06.914Z,28.13
2024-01-24T08:21:33.567Z,25.58
2024-01-24T08:24:00.263Z,25.15
2024-01-24T08:26:26.921Z,26.27
2024-01-24T08:28:53.889Z,16.50
2024-01-24T08:31:20.766Z,27.45
2024-01-24T08:33:50.306Z,26.08
2024-01-24T08:36:18.743Z,22.88
2024-01-24T08:38:45.259Z,22.83
2024-01-24T08:41:11.805Z,24.00
2024-01-24T08:43:38.296Z,29.48
2024-01-24T08:46:04.878Z,21.63
2024-01-24T08:48:31.581Z,28.50
2024-01-24T08:50:58.146Z,25.95
2024-01-24T08:53:24.624Z,26.08
2024-01-24T08:55:51.418Z,22.13
2024-01-24T08:58:18.092Z,25.77
2024-01-24T09:00:46.399Z,26.65
2024-01-24T09:03:13.446Z,24.25
2024-01-24T09:05:40.145Z,22.52
2024-01-24T09:08:06.915Z,21.58
2024-01-24T09:10:33.646Z,28.20
2024-01-24T09:13:00.485Z,28.38
2024-01-24T09:15:27.212Z,23.30
2024-01-24T09:17:53.913Z,24.08
2024-01-24T09:20:20.723Z,23.15
2024-01-24T09:22:48.028Z,22.05
2024-01-24T09:25:15.719Z,21.77
2024-01-24T09:27:42.753Z,25.80
2024-01-24T09:30:09.693Z,24.02
2024-01-24T09:32:36.467Z,30.00
2024-01-24T09:35:03.486Z,21.70
2024-01-24T09:37:30.137Z,27.27
2024-01-24T09:39:57.482Z,27.75
2024-01-24T09:42:27.004Z,25.85
2024-01-24T09:44:58.388Z,21.65
2024-01-24T09:47:25.843Z,27.48
2024-01-24T09:49:52.747Z,25.58
2024-01-24T09:52:25.395Z,24.38
2024-01-24T09:55:00.377Z,25.67
2024-01-24T09:57:28.120Z,28.05
2024-01-24T09:59:55.639Z,21.98
2024-01-24T10:02:22.849Z,27.23
2024-01-24T10:04:52.846Z,25.17
2024-01-24T10:07:21.015Z,23.35
2024-01-24T10:09:48.670Z,24.60
2024-01-24T10:12:15.352Z,25.88
2024-01-24T10:14:42.265Z,23.70
2024-01-24T10:17:13.127Z,18.00
2024-01-24T10:19:40.383Z,20.80
2024-01-24T10:22:10.457Z,26.40
2024-01-24T10:24:37.939Z,19.33
2024-01-24T10:27:05.596Z,20.33
2024-01-24T10:29:32.491Z,24.73
2024-01-24T10:32:00.258Z,31.40
2024-01-24T10:34:30.872Z,20.08
2024-01-24T10:36:57.505Z,21.77
2024-01-24T10:39:26.559Z,24.73
2024-01-24T10:41:55.653Z,20.00
2024-01-24T10:44:25.847Z,29.33
2024-01-24T10:46:52.905Z,20.63
2024-01-24T10:49:20.417Z,20.10
2024-01-24T10:51:47.946Z,23.27
2024-01-24T10:54:17.039Z,21.10
2024-01-24T10:56:51.112Z,18.40
2024-01-24T10:59:19.071Z,23.48
2024-01-24T11:01:46.369Z,24.13
2024-01-24T11:04:16.666Z,24.40
2024-01-24T11:06:49.695Z,18.58
2024-01-24T11:09:27.935Z,20.75
2024-01-24T11:11:57.781Z,23.40
2024-01-24T11:14:33.245Z,19.88
2024-01-24T11:17:00.884Z,24.25
2024-01-24T11:19:29.395Z,24.42
2024-01-24T11:22:10.520Z,20.88
2024-01-24T11:24:46.075Z,22.80
2024-01-24T11:27:39.532Z,26.30
2024-01-24T11:30:07.371Z,24.08
2024-01-24T11:32:46.312Z,22.52
2024-01-24T11:35:37.086Z,17.70
2024-01-24T11:38:26.880Z,23.77
2024-01-24T11:41:11.444Z,22.48
2024-01-24T11:43:40.175Z,22.00
2024-01-24T11:46:09.657Z,23.42
2024-01-24T11:48:38.277Z,25.80
2024-01-24T11:51:07.131Z,22.15
2024-01-24T11:53:33.999Z,15.95
2024-01-24T11:56:03.195Z,20.77
2024-01-24T11:58:30.902Z,16.75
2024-01-24T12:01:01.904Z,17.75
2024-01-24T12:03:28.677Z,22.65
2024-01-24T12:05:56.338Z,18.52
2024-01-24T12:08:23.172Z,19.90
2024-01-24T12:10:52.410Z,19.48
2024-01-24T12:13:21.441Z,19.95
2024-01-24T12:15:48.592Z,20.10
2024-01-24T12:18:17.969Z,15.55
2024-01-24T12:20:50.652Z,20.55
2024-01-24T12:23:17.958Z,22.00
2024-01-24T12:25:45.362Z,25.92
2024-01-24T12:28:13.180Z,17.08
2024-01-24T12:30:44.742Z,22.73
2024-01-24T12:33:11.965Z,17.50
2024-01-24T12:35:38.691Z,15.30
2024-01-24T12:38:05.727Z,17.15
2024-01-24T12:40:33.111Z,20.52
2024-01-24T12:43:00.905Z,21.65
2024-01-24T12:45:28.474Z,22.15
2024-01-24T12:47:55.966Z,18.20
2024-01-24T12:50:23.807Z,21.10
2024-01-24T12:52:50.813Z,17.33
2024-01-24T12:55:18.015Z,17.23
2024-01-24T12:57:45.635Z,18.05
2024-01-24T13:00:13.352Z,17.58
2024-01-24T13:02:41.020Z,18.65
2024-01-24T13:05:10.177Z,19.90
2024-01-24T13:07:37.997Z,16.85
2024-01-24T13:10:07.377Z,21.83
2024-01-24T13:12:34.872Z,19.63
2024-01-24T13:15:01.741Z,23.48
2024-01-24T13:17:28.242Z,19.05
2024-01-24T13:19:54.911Z,16.85
2024-01-24T13:22:21.544Z,18.15
2024-01-24T13:24:48.636Z,24.20
2024-01-24T13:27:20.344Z,17.83
2024-01-24T13:29:46.980Z,19.90
2024-01-24T13:32:13.532Z,18.95
2024-01-24T13:34:40.150Z,25.70
2024-01-24T13:37:07.261Z,21.17
2024-01-24T13:39:34.530Z,21.25
2024-01-24T13:42:01.932Z,20.42
2024-01-24T13:44:28.556Z,21.88
2024-01-24T13:46:55.235Z,19.25
2024-01-24T13:49:22.028Z,21.58
2024-01-24T13:51:48.680Z,20.27
2024-01-24T13:54:15.563Z,20.45
2024-01-24T13:56:42.269Z,14.63
2024-01-24T13:59:10.746Z,23.05
2024-01-24T14:01:42.858Z,20.27
2024-01-24T14:04:12.774Z,16.05
2024-01-24T14:06:39.594Z,15.40
2024-01-24T14:09:06.232Z,21.98
2024-01-24T14:11:33.847Z,20.63
2024-01-24T14:14:00.520Z,19.83
2024-01-24T14:16:27.203Z,15.63
2024-01-24T14:18:53.817Z,17.77
2024-01-24T14:21:20.507Z,19.92
2024-01-24T14:23:47.072Z,16.70
2024-01-24T14:26:14.181Z,21.80
2024-01-24T14:28:41.392Z,20.90
2024-01-24T14:31:08.012Z,17.15
2024-01-24T14:33:35.478Z,17.35
2024-01-24T14:36:03.002Z,17.70
2024-01-24T14:38:29.624Z,20.98
2024-01-24T14:40:56.929Z,18.42
2024-01-24T14:43:23.649Z,21.55
2024-01-24T14:45:50.229Z,17.42
2024-01-24T14:48:17.536Z,17.10
2024-01-24T14:50:44.332Z,22.55
2024-01-24T14:53:10.901Z,17.52
2024-01-24T14:55:37.558Z,17.63
2024-01-24T14:58:04.347Z,18.08
2024-01-24T15:00:31.236Z,20.63
2024-01-24T15:02:58.677Z,16.95
2024-01-24T15:05:28.232Z,22.13
2024-01-24T15:07:55.053Z,17.95
2024-01-24T15:10:23.425Z,20.88
2024-01-24T15:12:50.120Z,17.60
2024-01-24T15:15:16.950Z,18.60
2024-01-24T15:17:43.673Z,21.02
2024-01-24T15:20:10.760Z,18.98
2024-01-24T15:22:39.697Z,21.52
2024-01-24T15:25:08.647Z,19.88
2024-01-24T15:27:36.044Z,18.45
2024-01-24T15:30:02.669Z,16.27
2024-01-24T15:32:31.080Z,18.35
2024-01-24T15:34:58.012Z,22.83
2024-01-24T15:37:24.748Z,23.27
2024-01-24T15:39:51.407Z,18.75
2024-01-24T15:42:19.908Z,20.13
2024-01-24T15:47:17.800Z,27.05
2024-01-24T15:49:44.860Z,17.17
2024-01-24T15:52:14.660Z,14.93
2024-01-24T15:54:42.499Z,17.73
2024-01-24T15:57:09.083Z,16.30
2024-01-24T15:59:36.284Z,21.80
2024-01-24T16:02:02.953Z,17.48
2024-01-24T16:04:30.843Z,18.40
2024-01-24T16:07:01.304Z,19.58
2024-01-24T16:09:28.052Z,18.00
2024-01-24T16:11:54.929Z,24.23
2024-01-24T16:14:28.506Z,20.63
2024-01-24T16:16:56.835Z,15.40
2024-01-24T16:19:24.393Z,15.27
2024-01-24T16:21:53.315Z,19.92
2024-01-24T16:24:20.186Z,25.70
2024-01-24T16:26:47.097Z,31.67
2024-01-24T16:29:15.312Z,28.13
2024-01-24T16:31:42.083Z,21.13
2024-01-24T16:34:08.760Z,17.67
2024-01-24T16:36:36.053Z,19.00
2024-01-24T16:39:02.826Z,16.52
2024-01-24T16:41:29.340Z,25.55
2024-01-24T16:43:55.996Z,20.40
2024-01-24T16:46:22.460Z,19.75
2024-01-24T16:48:49.174Z,18.40
2024-01-24T16:51:17.043Z,18.27
2024-01-24T16:53:43.595Z,22.67
2024-01-24T16:56:10.117Z,21.17
2024-01-24T16:58:36.653Z,19.05
2024-01-24T17:01:04.640Z,18.98
2024-01-24T17:03:31.545Z,19.30
2024-01-24T17:05:58.367Z,15.52
2024-01-24T17:08:24.969Z,15.73
2024-01-24T17:10:51.531Z,16.05
2024-01-24T17:13:18.584Z,20.08
2024-01-24T17:15:45.949Z,18.70
2024-01-24T17:18:12.979Z,15.07
2024-01-24T17:20:40.045Z,16.70
2024-01-24T17:23:06.619Z,17.52
2024-01-24T17:25:33.200Z,16.08
2024-01-24T17:27:59.828Z,23.92
2024-01-24T17:30:26.530Z,12.60
2024-01-24T17:32:53.228Z,19.80
2024-01-24T17:35:19.798Z,20.13
2024-01-24T17:37:46.515Z,15.18
2024-01-24T17:40:13.455Z,19.77
2024-01-24T17:42:40.665Z,15.82
2024-01-24T17:45:07.917Z,17.25
2024-01-24T17:47:35.650Z,17.15
2024-01-24T17:50:03.550Z,20.83
2024-01-24T17:52:30.367Z,12.38
2024-01-24T17:55:02.629Z,14.40
2024-01-24T17:57:29.473Z,21.50
2024-01-24T17:59:56.360Z,16.88
2024-01-24T18:02:23.114Z,18.10
2024-01-24T18:04:50.082Z,24.15
2024-01-24T18:07:17.288Z,36.72
2024-01-24T18:09:44.492Z,16.33
2024-01-24T18:12:11.335Z,16.75
2024-01-24T18:14:38.441Z,16.85
2024-01-24T18:17:05.294Z,17.80
2024-01-24T18:19:33.260Z,24.15
2024-01-24T18:22:01.064Z,17.83
2024-01-24T18:24:27.787Z,15.10
2024-01-24T18:26:54.361Z,16.35
2024-01-24T18:29:20.930Z,17.48
2024-01-24T18:31:48.442Z,17.38
2024-01-24T18:34:15.734Z,16.67
2024-01-24T18:36:42.436Z,16.20
2024-01-24T18:39:09.057Z,18.08
2024-01-24T18:41:36.077Z,14.90
2024-01-24T18:44:02.606Z,21.35
2024-01-24T18:46:29.616Z,18.30
2024-01-24T18:48:57.303Z,20.13
2024-01-24T18:51:25.339Z,19.88
2024-01-24T18:53:51.919Z,16.75
2024-01-24T18:56:19.811Z,19.33
2024-01-24T18:58:46.937Z,18.55
2024-01-24T19:01:14.145Z,18.48
2024-01-24T19:03:41.699Z,20.88
2024-01-24T19:06:08.701Z,25.48
2024-01-24T19:08:37.527Z,19.00
2024-01-24T19:11:04.962Z,22.52
2024-01-24T19:13:32.151Z,19.35
2024-01-24T19:15:59.488Z,20.25
2024-01-24T19:18:27.726Z,18.95
2024-01-24T19:20:54.973Z,19.88
2024-01-24T19:23:21.529Z,17.70
2024-01-24T19:25:48.161Z,23.58
2024-01-24T19:28:14.845Z,23.02
2024-01-24T19:30:41.502Z,21.13
2024-01-24T19:33:08.212Z,22.83
2024-01-24T19:35:35.138Z,16.85
2024-01-24T19:38:01.935Z,14.98
2024-01-24T19:40:28.415Z,15.63
2024-01-24T19:42:55.960Z,19.73
2024-01-24T19:45:22.604Z,20.02
2024-01-24T19:47:49.374Z,22.50
2024-01-24T19:50:17.090Z,23.40
2024-01-24T19:52:43.694Z,18.83
2024-01-24T19:55:10.407Z,16.48
2024-01-24T19:57:37.638Z,23.90
2024-01-24T20:00:04.903Z,18.20
2024-01-24T20:02:32.696Z,15.70
2024-01-24T20:04:59.384Z,20.42
2024-01-24T20:07:25.955Z,17.08
2024-01-24T20:09:54.648Z,19.23
2024-01-24T20:12:22.927Z,17.95
2024-01-24T20:14:52.671Z,20.35
2024-01-24T20:17:21.729Z,19.05
2024-01-24T20:22:16.970Z,15.05
2024-01-24T20:24:43.652Z,17.33
2024-01-24T20:27:10.645Z,14.63
2024-01-24T20:29:37.171Z,20.63
2024-01-24T20:32:04.622Z,18.27
2024-01-24T20:34:31.624Z,13.82
2024-01-24T20:36:59.014Z,15.10
2024-01-24T20:39:26.536Z,18.63
2024-01-24T20:41:53.155Z,16.15
2024-01-24T20:44:20.372Z,15.85
2024-01-24T20:46:46.978Z,14.25
2024-01-24T20:49:13.665Z,18.15
2024-01-24T20:51:40.866Z,14.18
2024-01-24T20:54:09.558Z,19.10
2024-01-24T20:56:36.293Z,20.45
2024-01-24T20:59:02.837Z,18.60
2024-01-24T21:01:29.630Z,20.45
2024-01-24T21:03:56.832Z,18.38
2024-01-24T21:06:26.426Z,20.05
2024-01-24T21:08:54.331Z,16.90
2024-01-24T21:11:21.938Z,16.42
2024-01-24T21:13:48.592Z,15.50
2024-01-24T21:16:15.681Z,20.98
2024-01-24T21:18:43.435Z,13.48
2024-01-24T21:21:11.568Z,18.55
2024-01-24T21:23:38.153Z,13.90
2024-01-24T21:26:04.777Z,16.33
2024-01-24T21:28:31.324Z,14.07
2024-01-24T21:30:57.922Z,19.35
2024-01-24T21:33:24.598Z,13.43
2024-01-24T21:35:51.275Z,16.20
2024-01-24T21:38:18.509Z,19.55
2024-01-24T21:40:45.132Z,20.13
2024-01-24T21:43:11.641Z,20.52
2024-01-24T21:45:38.185Z,18.55
2024-01-24T21:48:06.197Z,19.08
2024-01-24T21:50:32.751Z,20.75
2024-01-24T21:52:59.242Z,19.80
2024-01-24T21:55:25.710Z,15.75
2024-01-24T21:57:53.448Z,13.30
2024-01-24T22:00:20.644Z,18.67
2024-01-24T22:02:47.336Z,15.95
2024-01-24T22:05:13.891Z,14.55
2024-01-24T22:07:42.084Z,17.23
2024-01-24T22:10:09.126Z,14.80
2024-01-24T22:12:37.673Z,18.48
2024-01-24T22:15:09.313Z,17.65
2024-01-24T22:17:35.980Z,13.77
2024-01-24T22:20:03.348Z,19.75
2024-01-24T22:22:29.822Z,19.92
2024-01-24T22:24:56.337Z,10.55
2024-01-24T22:27:22.911Z,14.25
2024-01-24T22:29:49.434Z,14.82
2024-01-24T22:32:16.512Z,17.48
2024-01-24T22:34:43.312Z,17.95
2024-01-24T22:37:10.498Z,15.30
2024-01-24T22:39:37.126Z,16.10
2024-01-24T22:42:03.832Z,17.27
2024-01-24T22:44:30.383Z,15.90
2024-01-24T22:46:56.876Z,21.23
2024-01-24T22:49:23.708Z,22.20
2024-01-24T22:51:50.275Z,12.90
2024-01-24T22:54:17.231Z,18.65
2024-01-24T22:56:43.754Z,15.27
2024-01-24T22:59:10.398Z,19.00
2024-01-24T23:01:37.044Z,18.95
2024-01-24T23:04:03.887Z,20.35
2024-01-24T23:06:30.597Z,17.42
2024-01-24T23:08:57.181Z,18.30
2024-01-24T23:11:23.715Z,14.85
2024-01-24T23:13:50.290Z,17.40
2024-01-24T23:16:17.321Z,17.70
2024-01-24T23:18:44.048Z,19.33
2024-01-24T23:21:10.782Z,22.02
2024-01-24T23:23:37.542Z,20.13
2024-01-24T23:26:04.231Z,15.45
2024-01-24T23:28:30.883Z,15.73
2024-01-24T23:30:57.641Z,19.30
2024-01-24T23:33:25.727Z,20.08
2024-01-24T23:35:52.329Z,14.70
2024-01-24T23:38:18.829Z,17.77
2024-01-24T23:40:45.376Z,21.58
2024-01-24T23:43:12.013Z,17.30
2024-01-24T23:45:38.575Z,15.43
2024-01-24T23:48:05.492Z,16.48
2024-01-24T23:50:32.402Z,15.98
2024-01-24T23:53:00.367Z,17.05
2024-01-24T23:55:27.406Z,20.98
2024-01-24T23:57:55.005Z,18.33
